Terminal Aerodrome Forecast
Issued by NWS Upton, NY

Home | Current Version | Previous Version | Text Only | Print | Product List | Glossary On
Versions: 1 2 3 4 5 6 7 8 9 10 11 12 13 14 15 16 17 18 19 20 21 22 23 24 25 26 27
412
FTUS41 KOKX 061740
TAFISP
TAF
KISP 061740Z 0618/0718 10010KT P6SM FEW035 BKN100 OVC200
     FM070000 10009G16KT 5SM -RA BKN030 OVC070
     FM070200 09009G16KT 3SM -RA BR BKN012 OVC020
     FM070600 06010G17KT 3SM -RADZ BR BKN007 OVC010
     FM071200 06006KT 3SM -DZ BR BKN007 OVC010
     FM071700 VRB05KT 6SM BR BKN010 OVC025=

USA.gov is the U.S. government's official web portal to all federal, state and local government web resources and services.